Terminal Aerodrome Forecast
Issued by NWS Shreveport, LA

Home | Current Version | Previous Version | Text Only | Print | Product List | Glossary On
Versions: 1 2 3 4 5 6 7 8 9 10 11 12 13 14
000
FTUS44 KSHV 011700
TAFGGG
TAF
KGGG 011720Z 0118/0218 15010KT P6SM VCSH SCT020 BKN040
     FM020000 16008KT P6SM SCT040
     FM020700 17008KT P6SM BKN025
      TEMPO 0209/0213 OVC015
     FM021400 19010KT P6SM SCT030=

USA.gov is the U.S. government's official web portal to all federal, state and local government web resources and services.